createdAt,value
2018-11-11T00:00:22.202Z,98113.00
2018-11-11T00:02:52.553Z,98115.00
2018-11-11T00:05:21.840Z,98121.00
2018-11-11T00:07:51.156Z,98121.00
2018-11-11T00:10:20.565Z,98121.00
2018-11-11T00:12:49.932Z,98124.00
2018-11-11T00:15:19.235Z,98127.00
2018-11-11T00:17:48.932Z,98137.00
2018-11-11T00:20:18.293Z,98139.00
2018-11-11T00:22:47.653Z,98146.00
2018-11-11T00:25:16.913Z,98144.00
2018-11-11T00:27:46.298Z,98149.00
2018-11-11T00:30:16.993Z,98155.00
2018-11-11T00:32:46.373Z,98141.00
2018-11-11T00:35:15.752Z,98141.00
2018-11-11T00:37:45.193Z,98132.00
2018-11-11T00:40:15.634Z,98142.00
2018-11-11T00:42:45.554Z,98141.00
2018-11-11T00:45:15.693Z,98152.00
2018-11-11T00:47:45.652Z,98148.00
2018-11-11T00:50:15.104Z,98144.00
2018-11-11T00:52:44.474Z,98133.00
2018-11-11T00:55:15.513Z,98136.00
2018-11-11T00:57:45.236Z,98131.00
2018-11-11T01:00:18.013Z,98142.00
2018-11-11T01:02:50.456Z,98146.00
2018-11-11T01:05:19.773Z,98151.00
2018-11-11T01:07:49.153Z,98143.00
2018-11-11T01:10:18.453Z,98132.00
2018-11-11T01:12:47.812Z,98128.00
2018-11-11T01:15:17.493Z,98132.00
2018-11-11T01:17:46.833Z,98136.00
2018-11-11T01:20:17.153Z,98138.00
2018-11-11T01:22:47.137Z,98127.00
2018-11-11T01:25:17.174Z,98123.00
2018-11-11T01:27:46.493Z,98130.00
2018-11-11T01:30:15.885Z,98122.00
2018-11-11T01:32:45.512Z,98120.00
2018-11-11T01:35:21.714Z,98132.00
2018-11-11T01:37:51.013Z,98135.00
2018-11-11T01:40:20.273Z,98133.00
2018-11-11T01:42:49.573Z,98135.00
2018-11-11T01:45:19.794Z,98135.00
2018-11-11T01:47:49.452Z,98151.00
2018-11-11T01:50:19.036Z,98147.00
2018-11-11T01:52:48.312Z,98141.00
2018-11-11T01:55:17.652Z,98145.00
2018-11-11T01:57:47.233Z,98151.00
2018-11-11T02:00:17.733Z,98146.00
2018-11-11T02:02:47.993Z,98146.00
2018-11-11T02:05:17.334Z,98152.00
2018-11-11T02:07:47.372Z,98156.00
2018-11-11T02:10:17.014Z,98151.00
2018-11-11T02:12:46.776Z,98157.00
2018-11-11T02:15:16.928Z,98156.00
2018-11-11T02:17:46.353Z,98147.00
2018-11-11T02:20:17.713Z,98143.00
2018-11-11T02:22:47.992Z,98146.00
2018-11-11T02:25:17.376Z,98149.00
2018-11-11T02:27:46.993Z,98156.00
2018-11-11T02:30:18.679Z,98157.00
2018-11-11T02:32:48.334Z,98148.00
2018-11-11T02:35:17.793Z,98155.00
2018-11-11T02:37:47.119Z,98157.00
2018-11-11T02:40:18.035Z,98155.00
2018-11-11T02:42:47.955Z,98156.00
2018-11-11T02:45:18.360Z,98156.00
2018-11-11T02:47:47.653Z,98154.00
2018-11-11T02:50:18.185Z,98162.00
2018-11-11T02:52:47.792Z,98162.00
2018-11-11T02:55:17.655Z,98160.00
2018-11-11T02:57:47.553Z,98155.00
2018-11-11T03:00:20.194Z,98152.00
2018-11-11T03:02:50.034Z,98150.00
2018-11-11T03:05:19.832Z,98146.00
2018-11-11T03:07:49.152Z,98148.00
2018-11-11T03:10:18.811Z,98156.00
2018-11-11T03:12:49.034Z,98160.00
2018-11-11T03:15:18.853Z,98172.00
2018-11-11T03:17:48.213Z,98170.00
2018-11-11T03:20:18.015Z,98174.00
2018-11-11T03:22:47.373Z,98188.00
2018-11-11T03:25:17.612Z,98196.00
2018-11-11T03:27:46.933Z,98212.00
2018-11-11T03:30:17.237Z,98202.00
2018-11-11T03:32:46.637Z,98195.00
2018-11-11T03:35:15.953Z,98199.00
2018-11-11T03:37:46.039Z,98194.00
2018-11-11T03:40:19.893Z,98200.00
2018-11-11T03:42:50.095Z,98206.00
2018-11-11T03:45:20.182Z,98205.00
2018-11-11T03:47:50.794Z,98200.00
2018-11-11T03:50:20.230Z,98207.00
2018-11-11T03:52:49.573Z,98215.00
2018-11-11T03:55:18.932Z,98217.00
2018-11-11T03:57:48.196Z,98212.00
2018-11-11T04:00:17.736Z,98214.00
2018-11-11T04:02:47.054Z,98208.00
2018-11-11T04:05:17.653Z,98207.00
2018-11-11T04:07:46.992Z,98216.00
2018-11-11T04:10:17.613Z,98214.00
2018-11-11T04:12:47.832Z,98229.00
2018-11-11T04:15:18.457Z,98233.00
2018-11-11T04:17:48.134Z,98232.00
2018-11-11T04:20:18.893Z,98234.00
2018-11-11T04:22:48.547Z,98232.00
2018-11-11T04:25:18.433Z,98230.00
2018-11-11T04:27:47.796Z,98233.00
2018-11-11T04:30:17.113Z,98229.00
2018-11-11T04:32:46.433Z,98236.00
2018-11-11T04:35:15.693Z,98242.00
2018-11-11T04:37:45.073Z,98247.00
2018-11-11T04:40:14.434Z,98251.00
2018-11-11T04:42:44.013Z,98254.00
2018-11-11T04:45:14.813Z,98260.00
2018-11-11T04:47:45.313Z,98258.00
2018-11-11T04:50:16.021Z,98258.00
2018-11-11T04:52:46.173Z,98251.00
2018-11-11T04:55:15.501Z,98264.00
2018-11-11T04:57:44.872Z,98272.00
2018-11-11T05:00:14.893Z,98294.00
2018-11-11T05:02:44.197Z,98287.00
2018-11-11T05:05:14.080Z,98286.00
2018-11-11T05:07:43.973Z,98303.00
2018-11-11T05:10:13.665Z,98315.00
2018-11-11T05:12:43.033Z,98319.00
2018-11-11T05:15:13.174Z,98322.00
2018-11-11T05:17:42.932Z,98322.00
2018-11-11T05:20:13.174Z,98314.00
2018-11-11T05:22:43.014Z,98313.00
2018-11-11T05:25:14.293Z,98314.00
2018-11-11T05:27:44.434Z,98317.00
2018-11-11T05:30:14.535Z,98312.00
2018-11-11T05:32:43.533Z,98316.00
2018-11-11T05:35:13.082Z,98307.00
2018-11-11T05:37:43.020Z,98316.00
2018-11-11T05:40:13.240Z,98328.00
2018-11-11T05:42:43.460Z,98332.00
2018-11-11T05:45:14.101Z,98331.00
2018-11-11T05:47:44.362Z,98343.00
2018-11-11T05:50:15.130Z,98346.00
2018-11-11T05:52:45.803Z,98342.00
2018-11-11T05:55:15.306Z,98338.00
2018-11-11T05:57:44.847Z,98340.00
2018-11-11T06:00:15.802Z,98345.00
2018-11-11T06:02:45.242Z,98353.00
2018-11-11T06:05:15.460Z,98351.00
2018-11-11T06:07:45.221Z,98349.00
2018-11-11T06:10:15.301Z,98359.00
2018-11-11T06:12:44.776Z,98356.00
2018-11-11T06:15:14.661Z,98367.00
2018-11-11T06:17:44.046Z,98358.00
2018-11-11T06:20:16.219Z,98351.00
2018-11-11T06:22:45.500Z,98351.00
2018-11-11T06:25:14.865Z,98349.00
2018-11-11T06:27:44.268Z,98359.00
2018-11-11T06:30:13.678Z,98354.00
2018-11-11T06:32:43.558Z,98363.00
2018-11-11T06:35:12.903Z,98374.00
2018-11-11T06:37:42.238Z,98386.00
2018-11-11T06:40:12.979Z,98394.00
2018-11-11T06:42:42.678Z,98396.00
2018-11-11T06:45:13.441Z,98403.00
2018-11-11T06:47:43.438Z,98396.00
2018-11-11T06:50:13.980Z,98403.00
2018-11-11T06:52:43.962Z,98414.00
2018-11-11T06:55:13.539Z,98412.00
2018-11-11T06:57:43.020Z,98409.00
2018-11-11T07:00:14.443Z,98409.00
2018-11-11T07:03:00.298Z,98397.00
2018-11-11T07:05:29.638Z,98417.00
2018-11-11T07:07:58.918Z,98421.00
2018-11-11T07:10:28.598Z,98435.00
2018-11-11T07:12:57.898Z,98442.00
2018-11-11T07:15:27.356Z,98427.00
2018-11-11T07:17:56.784Z,98432.00
2018-11-11T07:20:26.140Z,98435.00
2018-11-11T07:22:55.457Z,98428.00
2018-11-11T07:25:24.805Z,98421.00
2018-11-11T07:27:54.098Z,98410.00
2018-11-11T07:30:23.457Z,98402.00
2018-11-11T07:32:52.841Z,98412.00
2018-11-11T07:35:22.418Z,98422.00
2018-11-11T07:37:51.681Z,98430.00
2018-11-11T07:40:21.242Z,98433.00
2018-11-11T07:42:50.223Z,98422.00
2018-11-11T07:45:19.534Z,98431.00
2018-11-11T07:47:49.133Z,98437.00
2018-11-11T07:50:18.400Z,98454.00
2018-11-11T07:52:47.560Z,98467.00
2018-11-11T07:55:16.988Z,98466.00
2018-11-11T07:57:46.163Z,98479.00
2018-11-11T08:00:15.458Z,98483.00
2018-11-11T08:02:44.801Z,98486.00
2018-11-11T08:05:14.176Z,98471.00
2018-11-11T08:07:43.457Z,98471.00
2018-11-11T08:10:29.217Z,98483.00
2018-11-11T08:12:58.697Z,98493.00
2018-11-11T08:15:28.677Z,98504.00
2018-11-11T08:17:58.037Z,98508.00
2018-11-11T08:20:27.776Z,98511.00
2018-11-11T08:22:57.037Z,98512.00
2018-11-11T08:25:26.163Z,98506.00
2018-11-11T08:27:55.509Z,98508.00
2018-11-11T08:30:24.845Z,98512.00
2018-11-11T08:32:53.980Z,98499.00
2018-11-11T08:35:23.319Z,98497.00
2018-11-11T08:37:52.632Z,98499.00
2018-11-11T08:40:21.975Z,98503.00
2018-11-11T08:42:51.419Z,98500.00
2018-11-11T08:45:20.819Z,98507.00
2018-11-11T08:47:50.478Z,98511.00
2018-11-11T08:50:19.539Z,98506.00
2018-11-11T08:52:49.177Z,98501.00
2018-11-11T08:55:18.475Z,98505.00
2018-11-11T08:57:47.606Z,98507.00
2018-11-11T09:00:17.016Z,98511.00
2018-11-11T09:02:46.445Z,98505.00
2018-11-11T09:05:15.807Z,98509.00
2018-11-11T09:07:45.164Z,98518.00
2018-11-11T09:10:14.488Z,98530.00
2018-11-11T09:12:44.049Z,98529.00
2018-11-11T09:15:14.445Z,98545.00
2018-11-11T09:17:44.343Z,98540.00
2018-11-11T09:20:14.847Z,98545.00
2018-11-11T09:22:44.143Z,98546.00
2018-11-11T09:25:13.448Z,98547.00
2018-11-11T09:27:42.843Z,98548.00
2018-11-11T09:30:13.829Z,98552.00
2018-11-11T09:32:43.457Z,98549.00
2018-11-11T09:35:13.051Z,98547.00
2018-11-11T09:37:42.395Z,98549.00
2018-11-11T09:40:12.612Z,98544.00
2018-11-11T09:42:42.486Z,98539.00
2018-11-11T09:45:13.887Z,98534.00
2018-11-11T09:47:43.759Z,98530.00
2018-11-11T09:50:15.706Z,98528.00
2018-11-11T09:52:45.112Z,98524.00
2018-11-11T09:55:14.867Z,98518.00
2018-11-11T09:57:44.247Z,98518.00
2018-11-11T10:00:17.710Z,98519.00
2018-11-11T10:04:55.267Z,98530.00
2018-11-11T10:07:29.204Z,98539.00
2018-11-11T10:10:07.950Z,98535.00
2018-11-11T10:12:46.336Z,98539.00
2018-11-11T10:15:21.207Z,98543.00
2018-11-11T10:19:00.987Z,98553.00
2018-11-11T10:21:44.628Z,98553.00
2018-11-11T10:24:19.407Z,98564.00
2018-11-11T10:26:52.447Z,98568.00
2018-11-11T10:29:27.371Z,98581.00
2018-11-11T10:32:09.839Z,98578.00
2018-11-11T10:34:44.639Z,98586.00
2018-11-11T10:37:16.797Z,98576.00
2018-11-11T10:39:50.719Z,98578.00
2018-11-11T10:42:27.205Z,98554.00
2018-11-11T10:45:03.159Z,98547.00
2018-11-11T10:47:37.182Z,98554.00
2018-11-11T10:50:10.399Z,98547.00
2018-11-11T10:52:40.379Z,98555.00
2018-11-11T10:55:09.638Z,98552.00
2018-11-11T10:57:38.979Z,98558.00
2018-11-11T11:00:13.665Z,98561.00
2018-11-11T11:02:48.241Z,98573.00
2018-11-11T11:05:17.919Z,98569.00
2018-11-11T11:07:47.239Z,98557.00
2018-11-11T11:10:16.578Z,98555.00
2018-11-11T11:12:46.442Z,98559.00
2018-11-11T11:15:15.879Z,98558.00
2018-11-11T11:17:45.202Z,98547.00
2018-11-11T11:20:14.580Z,98553.00
2018-11-11T11:22:43.948Z,98561.00
2018-11-11T11:25:13.541Z,98559.00
2018-11-11T11:27:42.944Z,98565.00
2018-11-11T11:30:13.319Z,98546.00
2018-11-11T11:32:43.656Z,98552.00
2018-11-11T11:35:13.043Z,98553.00
2018-11-11T11:37:42.319Z,98567.00
2018-11-11T11:40:11.658Z,98564.00
2018-11-11T11:42:40.979Z,98570.00
2018-11-11T11:45:11.459Z,98575.00
2018-11-11T11:47:41.400Z,98567.00
2018-11-11T11:50:12.485Z,98560.00
2018-11-11T11:52:42.679Z,98558.00
2018-11-11T11:55:13.019Z,98559.00
2018-11-11T11:57:42.579Z,98553.00
2018-11-11T12:00:13.460Z,98554.00
2018-11-11T12:02:42.779Z,98565.00
2018-11-11T12:05:12.143Z,98564.00
2018-11-11T12:07:41.462Z,98564.00
2018-11-11T12:10:11.078Z,98558.00
2018-11-11T12:12:41.043Z,98561.00
2018-11-11T12:15:10.419Z,98544.00
2018-11-11T12:17:39.860Z,98550.00
2018-11-11T12:20:09.740Z,98552.00
2018-11-11T12:22:39.099Z,98556.00
2018-11-11T12:25:08.619Z,98549.00
2018-11-11T12:27:37.919Z,98547.00
2018-11-11T12:30:09.659Z,98543.00
2018-11-11T12:32:39.059Z,98546.00
2018-11-11T12:35:09.227Z,98541.00
2018-11-11T12:37:38.601Z,98545.00
2018-11-11T12:40:10.099Z,98534.00
2018-11-11T12:42:40.779Z,98550.00
2018-11-11T12:45:10.607Z,98545.00
2018-11-11T12:47:39.999Z,98542.00
2018-11-11T12:50:11.520Z,98549.00
2018-11-11T12:52:41.079Z,98552.00
2018-11-11T12:55:10.659Z,98573.00
2018-11-11T12:57:40.060Z,98582.00
2018-11-11T13:00:13.477Z,98590.00
2018-11-11T13:02:42.887Z,98572.00
2018-11-11T13:05:12.413Z,98585.00
2018-11-11T13:07:41.793Z,98578.00
2018-11-11T13:10:12.913Z,98569.00
2018-11-11T13:12:42.573Z,98580.00
2018-11-11T13:15:13.713Z,98590.00
2018-11-11T13:17:43.753Z,98585.00
2018-11-11T13:20:14.792Z,98579.00
2018-11-11T13:22:44.217Z,98585.00
2018-11-11T13:25:14.192Z,98583.00
2018-11-11T13:27:44.539Z,98579.00
2018-11-11T13:30:14.776Z,98586.00
2018-11-11T13:32:44.093Z,98587.00
2018-11-11T13:35:15.197Z,98581.00
2018-11-11T13:37:44.643Z,98587.00
2018-11-11T13:40:17.573Z,98583.00
2018-11-11T13:42:47.741Z,98592.00
2018-11-11T13:45:19.140Z,98592.00
2018-11-11T13:47:49.149Z,98581.00
2018-11-11T13:50:19.988Z,98585.00
2018-11-11T13:52:49.644Z,98590.00
2018-11-11T13:55:19.584Z,98583.00
2018-11-11T13:57:49.364Z,98584.00
2018-11-11T14:00:24.424Z,98593.00
2018-11-11T14:02:53.804Z,98604.00
2018-11-11T14:05:23.683Z,98599.00
2018-11-11T14:07:52.964Z,98614.00
2018-11-11T14:10:22.324Z,98620.00
2018-11-11T14:12:58.504Z,98630.00
2018-11-11T14:15:28.144Z,98631.00
2018-11-11T14:17:57.512Z,98625.00
2018-11-11T14:20:26.855Z,98626.00
2018-11-11T14:22:57.044Z,98637.00
2018-11-11T14:25:29.165Z,98625.00
2018-11-11T14:27:58.504Z,98626.00
2018-11-11T14:30:28.583Z,98619.00
2018-11-11T14:32:58.784Z,98623.00
2018-11-11T14:35:28.124Z,98623.00
2018-11-11T14:37:57.466Z,98622.00
2018-11-11T14:40:28.204Z,98619.00
2018-11-11T14:42:57.624Z,98621.00
2018-11-11T14:45:28.604Z,98615.00
2018-11-11T14:47:58.511Z,98609.00
2018-11-11T14:50:28.238Z,98616.00
2018-11-11T14:52:57.619Z,98624.00
2018-11-11T14:55:28.404Z,98624.00
2018-11-11T14:57:59.129Z,98629.00
2018-11-11T15:00:32.743Z,98631.00
2018-11-11T15:03:11.186Z,98645.00
2018-11-11T15:05:40.484Z,98649.00
2018-11-11T15:08:09.924Z,98657.00
2018-11-11T15:10:39.604Z,98659.00
2018-11-11T15:13:10.272Z,98661.00
2018-11-11T15:15:39.763Z,98670.00
2018-11-11T15:18:09.106Z,98671.00
2018-11-11T15:20:40.189Z,98678.00
2018-11-11T15:23:09.928Z,98672.00
2018-11-11T15:25:39.407Z,98687.00
2018-11-11T15:28:09.325Z,98680.00
2018-11-11T15:30:39.208Z,98693.00
2018-11-11T15:33:08.966Z,98696.00
2018-11-11T15:35:38.306Z,98700.00
2018-11-11T15:38:07.706Z,98701.00
2018-11-11T15:40:38.170Z,98697.00
2018-11-11T15:43:07.567Z,98707.00
2018-11-11T15:45:37.887Z,98708.00
2018-11-11T15:48:07.706Z,98712.00
2018-11-11T15:50:37.549Z,98712.00
2018-11-11T15:53:08.105Z,98721.00
2018-11-11T15:55:38.406Z,98722.00
2018-11-11T15:58:08.245Z,98728.00
2018-11-11T16:00:39.347Z,98730.00
2018-11-11T16:03:08.704Z,98738.00
2018-11-11T16:05:38.127Z,98736.00
2018-11-11T16:08:07.503Z,98737.00
2018-11-11T16:10:36.903Z,98742.00
2018-11-11T16:13:06.308Z,98732.00
2018-11-11T16:15:37.861Z,98740.00
2018-11-11T16:18:09.259Z,98735.00
2018-11-11T16:20:38.679Z,98744.00
2018-11-11T16:23:09.055Z,98733.00
2018-11-11T16:25:38.491Z,98735.00
2018-11-11T16:28:07.807Z,98739.00
2018-11-11T16:30:37.929Z,98740.00
2018-11-11T16:33:09.009Z,98746.00
2018-11-11T16:35:38.470Z,98749.00
2018-11-11T16:38:08.490Z,98743.00
2018-11-11T16:40:38.749Z,98736.00
2018-11-11T16:43:08.307Z,98743.00
2018-11-11T16:45:38.032Z,98736.00
2018-11-11T16:48:08.008Z,98736.00
2018-11-11T16:50:38.048Z,98741.00
2018-11-11T16:53:08.791Z,98741.00
2018-11-11T16:55:38.986Z,98741.00
2018-11-11T16:58:08.312Z,98739.00
2018-11-11T17:00:38.547Z,98737.00
2018-11-11T17:03:08.945Z,98746.00
2018-11-11T17:05:38.985Z,98748.00
2018-11-11T17:08:08.305Z,98750.00
2018-11-11T17:10:38.586Z,98756.00
2018-11-11T17:13:09.790Z,98743.00
2018-11-11T17:15:39.090Z,98735.00
2018-11-11T17:18:08.413Z,98738.00
2018-11-11T17:20:37.767Z,98742.00
2018-11-11T17:23:08.010Z,98741.00
2018-11-11T17:25:37.330Z,98732.00
2018-11-11T17:28:07.055Z,98738.00
2018-11-11T17:30:36.385Z,98733.00
2018-11-11T17:33:06.562Z,98735.00
2018-11-11T17:35:35.889Z,98741.00
2018-11-11T17:38:05.869Z,98748.00
2018-11-11T17:40:35.210Z,98740.00
2018-11-11T17:43:05.309Z,98729.00
2018-11-11T17:45:34.611Z,98714.00
2018-11-11T17:48:04.030Z,98716.00
2018-11-11T17:50:34.051Z,98714.00
2018-11-11T17:53:04.612Z,98709.00
2018-11-11T17:55:34.099Z,98707.00
2018-11-11T17:58:03.370Z,98699.00
2018-11-11T18:00:32.899Z,98703.00
2018-11-11T18:03:03.024Z,98698.00
2018-11-11T18:05:32.830Z,98695.00
2018-11-11T18:08:02.275Z,98706.00
2018-11-11T18:10:31.555Z,98706.00
2018-11-11T18:13:00.977Z,98710.00
2018-11-11T18:15:31.480Z,98712.00
2018-11-11T18:18:00.879Z,98703.00
2018-11-11T18:20:31.888Z,98698.00
2018-11-11T18:23:02.080Z,98685.00
2018-11-11T18:25:31.537Z,98678.00
2018-11-11T18:28:01.059Z,98670.00
2018-11-11T18:30:31.825Z,98672.00
2018-11-11T18:33:01.126Z,98673.00
2018-11-11T18:35:30.504Z,98689.00
2018-11-11T18:37:59.886Z,98695.00
2018-11-11T18:40:29.603Z,98694.00
2018-11-11T18:42:58.983Z,98692.00
2018-11-11T18:45:29.375Z,98696.00
2018-11-11T18:47:59.711Z,98694.00
2018-11-11T18:50:31.243Z,98695.00
2018-11-11T18:53:00.584Z,98693.00
2018-11-11T18:55:30.008Z,98692.00
2018-11-11T18:57:59.632Z,98680.00
2018-11-11T19:00:30.805Z,98678.00
2018-11-11T19:03:00.133Z,98673.00
2018-11-11T19:05:29.464Z,98685.00
2018-11-11T19:07:59.353Z,98673.00
2018-11-11T19:10:30.148Z,98674.00
2018-11-11T19:13:04.513Z,98671.00
2018-11-11T19:15:33.953Z,98677.00
2018-11-11T19:18:03.393Z,98684.00
2018-11-11T19:20:32.857Z,98689.00
2018-11-11T19:23:02.193Z,98699.00
2018-11-11T19:25:31.973Z,98698.00
2018-11-11T19:28:02.413Z,98712.00
2018-11-11T19:30:32.847Z,98723.00
2018-11-11T19:33:02.201Z,98732.00
2018-11-11T19:35:31.635Z,98749.00
2018-11-11T19:38:01.015Z,98758.00
2018-11-11T19:40:30.793Z,98757.00
2018-11-11T19:43:01.113Z,98749.00
2018-11-11T19:45:31.181Z,98740.00
2018-11-11T19:48:00.632Z,98748.00
2018-11-11T19:50:30.453Z,98753.00
2018-11-11T19:53:00.095Z,98761.00
2018-11-11T19:55:29.756Z,98765.00
2018-11-11T19:57:59.093Z,98765.00
2018-11-11T20:00:30.193Z,98765.00
2018-11-11T20:03:01.333Z,98769.00
2018-11-11T20:05:31.095Z,98772.00
2018-11-11T20:08:01.415Z,98769.00
2018-11-11T20:10:31.298Z,98777.00
2018-11-11T20:13:01.463Z,98784.00
2018-11-11T20:15:32.601Z,98786.00
2018-11-11T20:18:02.023Z,98792.00
2018-11-11T20:20:32.872Z,98788.00
2018-11-11T20:23:02.158Z,98777.00
2018-11-11T20:25:31.452Z,98771.00
2018-11-11T20:28:00.915Z,98771.00
2018-11-11T20:30:31.692Z,98776.00
2018-11-11T20:33:02.772Z,98788.00
2018-11-11T20:35:32.876Z,98793.00
2018-11-11T20:38:02.262Z,98800.00
2018-11-11T20:40:31.614Z,98786.00
2018-11-11T20:43:00.906Z,98775.00
2018-11-11T20:45:31.693Z,98766.00
2018-11-11T20:48:01.073Z,98777.00
2018-11-11T20:50:31.752Z,98786.00
2018-11-11T20:53:02.372Z,98784.00
2018-11-11T20:55:32.171Z,98781.00
2018-11-11T20:58:01.753Z,98787.00
2018-11-11T21:00:32.572Z,98788.00
2018-11-11T21:03:01.952Z,98786.00
2018-11-11T21:05:31.652Z,98788.00
2018-11-11T21:08:01.116Z,98791.00
2018-11-11T21:10:31.177Z,98792.00
2018-11-11T21:13:00.992Z,98802.00
2018-11-11T21:15:31.352Z,98801.00
2018-11-11T21:18:00.752Z,98799.00
2018-11-11T21:20:31.813Z,98797.00
2018-11-11T21:23:01.238Z,98800.00
2018-11-11T21:25:30.815Z,98802.00
2018-11-11T21:28:00.195Z,98815.00
2018-11-11T21:30:30.512Z,98819.00
2018-11-11T21:33:00.014Z,98819.00
2018-11-11T21:35:29.273Z,98826.00
2018-11-11T21:37:58.612Z,98824.00
2018-11-11T21:40:28.232Z,98824.00
2018-11-11T21:42:57.556Z,98825.00
2018-11-11T21:45:27.672Z,98825.00
2018-11-11T21:47:56.998Z,98827.00
2018-11-11T21:50:27.232Z,98826.00
2018-11-11T21:53:38.114Z,98834.00
2018-11-11T21:56:08.059Z,98832.00
2018-11-11T21:58:37.641Z,98835.00
2018-11-11T22:01:07.412Z,98831.00
2018-11-11T22:03:36.679Z,98828.00
2018-11-11T22:06:06.812Z,98830.00
2018-11-11T22:08:36.115Z,98828.00
2018-11-11T22:11:06.083Z,98825.00
2018-11-11T22:13:35.393Z,98835.00
2018-11-11T22:16:04.825Z,98836.00
2018-11-11T22:18:34.032Z,98842.00
2018-11-11T22:21:03.392Z,98848.00
2018-11-11T22:23:32.692Z,98848.00
2018-11-11T22:26:02.274Z,98853.00
2018-11-11T22:28:31.632Z,98868.00
2018-11-11T22:31:00.972Z,98876.00
2018-11-11T22:33:30.292Z,98881.00
2018-11-11T22:35:59.892Z,98877.00
2018-11-11T22:38:29.219Z,98869.00
2018-11-11T22:40:58.478Z,98873.00
2018-11-11T22:43:27.877Z,98881.00
2018-11-11T22:45:57.217Z,98886.00
2018-11-11T22:48:26.517Z,98902.00
2018-11-11T22:50:55.857Z,98900.00
2018-11-11T22:53:25.419Z,98905.00
2018-11-11T22:55:54.737Z,98897.00
2018-11-11T22:58:24.060Z,98892.00
2018-11-11T23:00:58.996Z,98895.00
2018-11-11T23:03:28.277Z,98899.00
2018-11-11T23:05:57.617Z,98888.00
2018-11-11T23:08:26.957Z,98892.00
2018-11-11T23:10:56.377Z,98873.00
2018-11-11T23:13:25.657Z,98876.00
2018-11-11T23:15:55.024Z,98880.00
2018-11-11T23:18:24.604Z,98890.00
2018-11-11T23:20:53.938Z,98880.00
2018-11-11T23:23:23.316Z,98875.00
2018-11-11T23:25:52.657Z,98886.00
2018-11-11T23:28:21.971Z,98882.00
2018-11-11T23:30:51.276Z,98886.00
2018-11-11T23:33:20.597Z,98882.00
2018-11-11T23:35:49.897Z,98873.00
2018-11-11T23:38:19.277Z,98879.00
2018-11-11T23:40:48.557Z,98880.00
2018-11-11T23:43:18.038Z,98875.00
2018-11-11T23:45:47.336Z,98879.00
2018-11-11T23:48:16.597Z,98897.00
2018-11-11T23:50:45.857Z,98899.00
2018-11-11T23:53:15.217Z,98892.00
2018-11-11T23:55:44.557Z,98886.00
2018-11-11T23:58:13.916Z,98889.00
